sensor_id;sensor_type;location;lat;lon;timestamp;pressure;altitude;pressure_sealevel;temperature;humidity
7441;BME280;29616;51.950;8.572;2023-03-18T00:01:42;99332.81;;;10.85;100.00
7441;BME280;29616;51.950;8.572;2023-03-18T00:04:11;99340.31;;;10.91;100.00
7441;BME280;29616;51.950;8.572;2023-03-18T00:06:41;99352.28;;;10.90;100.00
7441;BME280;29616;51.950;8.572;2023-03-18T00:09:13;99365.63;;;10.85;100.00
7441;BME280;29616;51.950;8.572;2023-03-18T00:11:41;99358.78;;;10.81;100.00
7441;BME280;29616;51.950;8.572;2023-03-18T00:14:12;99359.97;;;10.79;100.00
7441;BME280;29616;51.950;8.572;2023-03-18T00:16:42;99352.31;;;10.58;100.00
7441;BME280;29616;51.950;8.572;2023-03-18T00:19:11;99360.31;;;10.68;100.00
7441;BME280;29616;51.950;8.572;2023-03-18T00:21:40;99351.63;;;10.64;100.00
7441;BME280;29616;51.950;8.572;2023-03-18T00:24:09;99350.94;;;10.70;100.00
7441;BME280;29616;51.950;8.572;2023-03-18T00:26:39;99342.25;;;10.59;100.00
7441;BME280;29616;51.950;8.572;2023-03-18T00:29:09;99345.81;;;10.59;100.00
7441;BME280;29616;51.950;8.572;2023-03-18T00:31:37;99350.06;;;10.70;100.00
7441;BME280;29616;51.950;8.572;2023-03-18T00:34:08;99368.03;;;10.72;100.00
7441;BME280;29616;51.950;8.572;2023-03-18T00:36:40;99364.59;;;10.70;100.00
7441;BME280;29616;51.950;8.572;2023-03-18T00:39:08;99364.59;;;10.70;100.00
7441;BME280;29616;51.950;8.572;2023-03-18T00:41:39;99354.69;;;10.69;100.00
7441;BME280;29616;51.950;8.572;2023-03-18T00:44:10;99363.41;;;10.65;100.00
7441;BME280;29616;51.950;8.572;2023-03-18T00:46:40;99360.50;;;10.66;100.00
7441;BME280;29616;51.950;8.572;2023-03-18T00:49:10;99362.56;;;10.64;100.00
7441;BME280;29616;51.950;8.572;2023-03-18T00:51:39;99365.78;;;10.68;100.00
7441;BME280;29616;51.950;8.572;2023-03-18T00:54:10;99350.78;;;10.64;100.00
7441;BME280;29616;51.950;8.572;2023-03-18T00:56:41;99344.78;;;10.52;100.00
7441;BME280;29616;51.950;8.572;2023-03-18T00:59:12;99363.56;;;10.71;100.00
7441;BME280;29616;51.950;8.572;2023-03-18T01:01:42;99366.13;;;10.73;100.00
7441;BME280;29616;51.950;8.572;2023-03-18T01:04:12;99363.56;;;10.71;100.00
7441;BME280;29616;51.950;8.572;2023-03-18T01:06:40;99354.00;;;10.67;100.00
7441;BME280;29616;51.950;8.572;2023-03-18T01:09:09;99364.25;;;10.73;100.00
7441;BME280;29616;51.950;8.572;2023-03-18T01:11:38;99322.59;;;10.55;100.00
7441;BME280;29616;51.950;8.572;2023-03-18T01:14:08;99357.25;;;10.79;100.00
7441;BME280;29616;51.950;8.572;2023-03-18T01:16:36;99353.16;;;10.75;100.00
7441;BME280;29616;51.950;8.572;2023-03-18T01:19:06;99361.84;;;10.78;100.00
7441;BME280;29616;51.950;8.572;2023-03-18T01:21:35;99353.66;;;10.78;100.00
7441;BME280;29616;51.950;8.572;2023-03-18T01:24:05;99348.19;;;10.78;100.00
7441;BME280;29616;51.950;8.572;2023-03-18T01:26:35;99334.19;;;10.73;100.00
7441;BME280;29616;51.950;8.572;2023-03-18T01:29:05;99351.25;;;10.83;100.00
7441;BME280;29616;51.950;8.572;2023-03-18T01:31:35;99337.97;;;10.72;100.00
7441;BME280;29616;51.950;8.572;2023-03-18T01:34:10;99338.44;;;10.76;100.00
7441;BME280;29616;51.950;8.572;2023-03-18T01:36:50;99350.59;;;10.81;100.00
7441;BME280;29616;51.950;8.572;2023-03-18T01:39:23;99358.09;;;10.79;100.00
7441;BME280;29616;51.950;8.572;2023-03-18T01:41:51;99352.13;;;10.76;100.00
7441;BME280;29616;51.950;8.572;2023-03-18T01:44:27;99337.97;;;10.72;100.00
7441;BME280;29616;51.950;8.572;2023-03-18T01:46:59;99345.13;;;10.73;100.00
7441;BME280;29616;51.950;8.572;2023-03-18T01:49:33;99329.78;;;10.64;100.00
7441;BME280;29616;51.950;8.572;2023-03-18T01:52:05;99319.53;;;10.58;100.00
7441;BME280;29616;51.950;8.572;2023-03-18T01:54:37;99320.53;;;10.49;100.00
7441;BME280;29616;51.950;8.572;2023-03-18T01:57:08;99344.44;;;10.63;100.00
7441;BME280;29616;51.950;8.572;2023-03-18T01:59:39;99309.78;;;10.40;100.00
7441;BME280;29616;51.950;8.572;2023-03-18T02:02:12;99343.06;;;10.59;100.00
7441;BME280;29616;51.950;8.572;2023-03-18T02:04:44;99325.31;;;10.47;100.00
7441;BME280;29616;51.950;8.572;2023-03-18T02:07:15;99321.41;;;10.42;100.00
7441;BME280;29616;51.950;8.572;2023-03-18T02:09:47;99331.47;;;10.49;100.00
7441;BME280;29616;51.950;8.572;2023-03-18T02:12:20;99334.19;;;10.49;100.00
7441;BME280;29616;51.950;8.572;2023-03-18T02:14:54;99346.50;;;10.53;100.00
7441;BME280;29616;51.950;8.572;2023-03-18T02:17:29;99350.09;;;10.54;100.00
7441;BME280;29616;51.950;8.572;2023-03-18T02:20:07;99336.59;;;10.44;100.00
7441;BME280;29616;51.950;8.572;2023-03-18T02:22:39;99342.06;;;10.52;100.00
7441;BME280;29616;51.950;8.572;2023-03-18T02:25:24;99337.44;;;10.53;100.00
7441;BME280;29616;51.950;8.572;2023-03-18T02:27:59;99333.34;;;10.57;100.00
7441;BME280;29616;51.950;8.572;2023-03-18T02:30:33;99320.88;;;10.38;100.00
7441;BME280;29616;51.950;8.572;2023-03-18T02:33:06;99334.88;;;10.51;100.00
7441;BME280;29616;51.950;8.572;2023-03-18T02:35:34;99328.59;;;10.51;100.00
7441;BME280;29616;51.950;8.572;2023-03-18T02:38:03;99325.84;;;10.51;100.00
7441;BME280;29616;51.950;8.572;2023-03-18T02:40:34;99314.06;;;10.34;100.00
7441;BME280;29616;51.950;8.572;2023-03-18T02:43:20;99345.66;;;10.53;100.00
7441;BME280;29616;51.950;8.572;2023-03-18T02:45:58;99346.50;;;10.53;100.00
7441;BME280;29616;51.950;8.572;2023-03-18T02:48:33;99339.50;;;10.51;100.00
7441;BME280;29616;51.950;8.572;2023-03-18T02:51:04;99338.66;;;10.50;100.00
7441;BME280;29616;51.950;8.572;2023-03-18T02:53:34;99319.53;;;10.34;100.00
7441;BME280;29616;51.950;8.572;2023-03-18T02:56:04;99343.09;;;10.43;100.00
7441;BME280;29616;51.950;8.572;2023-03-18T02:58:36;99339.84;;;10.31;100.00
7441;BME280;29616;51.950;8.572;2023-03-18T03:01:06;99340.50;;;10.25;100.00
7441;BME280;29616;51.950;8.572;2023-03-18T03:03:37;99333.97;;;10.10;100.00
7441;BME280;29616;51.950;8.572;2023-03-18T03:06:08;99364.75;;;10.28;100.00
7441;BME280;29616;51.950;8.572;2023-03-18T03:08:39;99342.34;;;10.17;100.00
7441;BME280;29616;51.950;8.572;2023-03-18T03:11:09;99356.75;;;10.27;100.00
7441;BME280;29616;51.950;8.572;2023-03-18T03:13:41;99326.97;;;10.00;100.00
7441;BME280;29616;51.950;8.572;2023-03-18T03:16:14;99362.28;;;10.09;100.00
7441;BME280;29616;51.950;8.572;2023-03-18T03:18:42;99348.81;;;10.00;100.00
7441;BME280;29616;51.950;8.572;2023-03-18T03:21:12;99307.97;;;9.66;100.00
7441;BME280;29616;51.950;8.572;2023-03-18T03:23:43;99353.34;;;9.83;100.00
7441;BME280;29616;51.950;8.572;2023-03-18T03:26:13;99343.59;;;9.72;100.00
7441;BME280;29616;51.950;8.572;2023-03-18T03:28:43;99351.97;;;9.71;100.00
7441;BME280;29616;51.950;8.572;2023-03-18T03:31:12;99350.03;;;9.63;100.00
7441;BME280;29616;51.950;8.572;2023-03-18T03:33:41;99368.63;;;9.60;100.00
7441;BME280;29616;51.950;8.572;2023-03-18T03:36:13;99367.41;;;9.54;100.00
7441;BME280;29616;51.950;8.572;2023-03-18T03:38:44;99339.75;;;9.41;100.00
7441;BME280;29616;51.950;8.572;2023-03-18T03:41:14;99362.31;;;9.59;100.00
7441;BME280;29616;51.950;8.572;2023-03-18T03:43:49;99318.75;;;9.34;100.00
7441;BME280;29616;51.950;8.572;2023-03-18T03:46:17;99346.22;;;9.48;100.00
7441;BME280;29616;51.950;8.572;2023-03-18T03:48:46;99360.78;;;9.57;100.00
7441;BME280;29616;51.950;8.572;2023-03-18T03:51:15;99320.09;;;9.38;100.00
7441;BME280;29616;51.950;8.572;2023-03-18T03:53:44;99347.97;;;9.49;100.00
7441;BME280;29616;51.950;8.572;2023-03-18T03:56:13;99329.47;;;9.35;100.00
7441;BME280;29616;51.950;8.572;2023-03-18T03:58:43;99372.97;;;9.45;100.00
7441;BME280;29616;51.950;8.572;2023-03-18T04:01:13;99357.75;;;9.34;100.00
7441;BME280;29616;51.950;8.572;2023-03-18T04:03:45;99360.47;;;9.34;100.00
7441;BME280;29616;51.950;8.572;2023-03-18T04:06:15;99367.94;;;9.24;100.00
7441;BME280;29616;51.950;8.572;2023-03-18T04:08:54;99382.75;;;9.22;100.00
7441;BME280;29616;51.950;8.572;2023-03-18T04:11:24;99332.16;;;8.93;100.00
7441;BME280;29616;51.950;8.572;2023-03-18T04:13:54;99362.09;;;9.19;100.00
7441;BME280;29616;51.950;8.572;2023-03-18T04:16:23;99364.53;;;9.22;100.00
7441;BME280;29616;51.950;8.572;2023-03-18T04:18:52;99341.25;;;9.02;100.00
7441;BME280;29616;51.950;8.572;2023-03-18T04:21:22;99372.16;;;9.19;100.00
7441;BME280;29616;51.950;8.572;2023-03-18T04:23:54;99374.19;;;9.17;100.00
7441;BME280;29616;51.950;8.572;2023-03-18T04:26:24;99375.69;;;9.11;100.00
7441;BME280;29616;51.950;8.572;2023-03-18T04:28:58;99383.81;;;9.03;100.00
7441;BME280;29616;51.950;8.572;2023-03-18T04:31:28;99387.88;;;8.99;100.00
7441;BME280;29616;51.950;8.572;2023-03-18T04:34:01;99392.78;;;8.95;100.00
7441;BME280;29616;51.950;8.572;2023-03-18T04:36:31;99394.28;;;8.90;100.00
7441;BME280;29616;51.950;8.572;2023-03-18T04:39:01;99382.00;;;8.86;100.00
7441;BME280;29616;51.950;8.572;2023-03-18T04:41:31;99399.22;;;9.12;100.00
7441;BME280;29616;51.950;8.572;2023-03-18T04:44:03;99395.88;;;9.18;100.00
7441;BME280;29616;51.950;8.572;2023-03-18T04:46:44;99394.19;;;9.25;100.00
7441;BME280;29616;51.950;8.572;2023-03-18T04:49:14;99397.28;;;9.30;100.00
7441;BME280;29616;51.950;8.572;2023-03-18T04:51:44;99390.00;;;9.39;100.00
7441;BME280;29616;51.950;8.572;2023-03-18T04:54:25;99382.19;;;9.44;100.00
7441;BME280;29616;51.950;8.572;2023-03-18T04:57:00;99374.81;;;9.36;100.00
7441;BME280;29616;51.950;8.572;2023-03-18T04:59:32;99374.50;;;9.39;100.00
7441;BME280;29616;51.950;8.572;2023-03-18T05:02:05;99380.38;;;9.52;100.00
7441;BME280;29616;51.950;8.572;2023-03-18T05:04:36;99388.03;;;9.57;100.00
7441;BME280;29616;51.950;8.572;2023-03-18T05:07:07;99391.22;;;9.44;100.00
7441;BME280;29616;51.950;8.572;2023-03-18T05:09:39;99370.00;;;9.30;100.00
7441;BME280;29616;51.950;8.572;2023-03-18T05:12:11;99387.06;;;9.32;100.00
7441;BME280;29616;51.950;8.572;2023-03-18T05:14:42;99401.44;;;9.42;100.00
7441;BME280;29616;51.950;8.572;2023-03-18T05:17:12;99394.06;;;9.35;100.00
7441;BME280;29616;51.950;8.572;2023-03-18T05:19:52;99402.41;;;9.33;100.00
7441;BME280;29616;51.950;8.572;2023-03-18T05:22:22;99414.00;;;9.35;100.00
7441;BME280;29616;51.950;8.572;2023-03-18T05:24:57;99424.22;;;9.33;100.00
7441;BME280;29616;51.950;8.572;2023-03-18T05:27:28;99409.69;;;9.25;100.00
7441;BME280;29616;51.950;8.572;2023-03-18T05:30:03;99416.63;;;9.19;100.00
7441;BME280;29616;51.950;8.572;2023-03-18T05:32:44;99410.19;;;9.20;100.00
7441;BME280;29616;51.950;8.572;2023-03-18T05:35:15;99393.41;;;9.07;100.00
7441;BME280;29616;51.950;8.572;2023-03-18T05:37:48;99374.09;;;9.00;100.00
7441;BME280;29616;51.950;8.572;2023-03-18T05:40:19;99418.66;;;9.17;100.00
7441;BME280;29616;51.950;8.572;2023-03-18T05:43:01;99420.00;;;9.13;100.00
7441;BME280;29616;51.950;8.572;2023-03-18T05:45:37;99414.66;;;9.03;100.00
7441;BME280;29616;51.950;8.572;2023-03-18T05:48:11;99415.47;;;8.96;100.00
7441;BME280;29616;51.950;8.572;2023-03-18T05:50:48;99415.41;;;8.88;100.00
7441;BME280;29616;51.950;8.572;2023-03-18T05:53:23;99410.03;;;8.78;100.00
7441;BME280;29616;51.950;8.572;2023-03-18T05:56:03;99423.56;;;8.88;100.00
7441;BME280;29616;51.950;8.572;2023-03-18T05:58:33;99425.97;;;8.91;100.00
7441;BME280;29616;51.950;8.572;2023-03-18T06:01:27;99436.81;;;8.83;100.00
7441;BME280;29616;51.950;8.572;2023-03-18T06:03:58;99432.38;;;8.82;100.00
7441;BME280;29616;51.950;8.572;2023-03-18T06:06:27;99439.16;;;8.78;100.00
7441;BME280;29616;51.950;8.572;2023-03-18T06:08:58;99439.22;;;8.86;100.00
7441;BME280;29616;51.950;8.572;2023-03-18T06:11:27;99443.03;;;8.93;100.00
7441;BME280;29616;51.950;8.572;2023-03-18T06:13:59;99441.13;;;9.11;100.00
7441;BME280;29616;51.950;8.572;2023-03-18T06:16:29;99452.00;;;9.29;100.00
7441;BME280;29616;51.950;8.572;2023-03-18T06:19:01;99449.03;;;9.48;100.00
7441;BME280;29616;51.950;8.572;2023-03-18T06:21:30;99444.38;;;9.66;100.00
7441;BME280;29616;51.950;8.572;2023-03-18T06:24:00;99428.09;;;9.56;100.00
7441;BME280;29616;51.950;8.572;2023-03-18T06:26:32;99445.59;;;9.80;100.00
7441;BME280;29616;51.950;8.572;2023-03-18T06:29:04;99418.34;;;9.88;100.00
7441;BME280;29616;51.950;8.572;2023-03-18T06:31:35;99443.84;;;10.78;100.00
7441;BME280;29616;51.950;8.572;2023-03-18T06:34:09;99460.22;;;11.51;100.00
7441;BME280;29616;51.950;8.572;2023-03-18T06:36:40;99452.91;;;11.11;100.00
7441;BME280;29616;51.950;8.572;2023-03-18T06:39:15;99452.56;;;10.74;100.00
7441;BME280;29616;51.950;8.572;2023-03-18T06:41:44;99453.41;;;10.66;100.00
7441;BME280;29616;51.950;8.572;2023-03-18T06:44:31;99463.66;;;10.88;100.00
7441;BME280;29616;51.950;8.572;2023-03-18T06:47:08;99461.63;;;10.90;100.00
7441;BME280;29616;51.950;8.572;2023-03-18T06:49:46;99427.31;;;10.88;100.00
7441;BME280;29616;51.950;8.572;2023-03-18T06:52:18;99461.44;;;11.24;100.00
7441;BME280;29616;51.950;8.572;2023-03-18T06:54:49;99468.78;;;11.40;100.00
7441;BME280;29616;51.950;8.572;2023-03-18T06:57:19;99462.84;;;11.99;100.00
7441;BME280;29616;51.950;8.572;2023-03-18T06:59:48;99457.53;;;12.59;100.00
7441;BME280;29616;51.950;8.572;2023-03-18T07:02:18;99471.97;;;12.23;100.00
7441;BME280;29616;51.950;8.572;2023-03-18T07:04:54;99470.38;;;11.97;100.00
7441;BME280;29616;51.950;8.572;2023-03-18T07:07:24;99464.38;;;12.02;100.00
7441;BME280;29616;51.950;8.572;2023-03-18T07:09:54;99470.63;;;12.19;100.00
7441;BME280;29616;51.950;8.572;2023-03-18T07:12:22;99440.91;;;12.38;100.00
7441;BME280;29616;51.950;8.572;2023-03-18T07:14:52;99475.38;;;13.31;100.00
7441;BME280;29616;51.950;8.572;2023-03-18T07:17:21;99471.56;;;15.00;100.00
7441;BME280;29616;51.950;8.572;2023-03-18T07:19:52;99468.44;;;16.48;100.00
7441;BME280;29616;51.950;8.572;2023-03-18T07:22:21;99464.22;;;16.11;100.00
7441;BME280;29616;51.950;8.572;2023-03-18T07:24:50;99460.25;;;14.52;100.00
7441;BME280;29616;51.950;8.572;2023-03-18T07:27:19;99487.00;;;14.00;100.00
7441;BME280;29616;51.950;8.572;2023-03-18T07:29:49;99488.56;;;13.65;100.00
7441;BME280;29616;51.950;8.572;2023-03-18T07:32:20;99495.09;;;13.50;100.00
7441;BME280;29616;51.950;8.572;2023-03-18T07:34:50;99499.69;;;13.34;100.00
7441;BME280;29616;51.950;8.572;2023-03-18T07:37:21;99512.47;;;12.97;100.00
7441;BME280;29616;51.950;8.572;2023-03-18T07:39:49;99496.16;;;13.03;100.00
7441;BME280;29616;51.950;8.572;2023-03-18T07:42:20;99515.63;;;13.16;100.00
7441;BME280;29616;51.950;8.572;2023-03-18T07:44:49;99510.00;;;13.10;100.00
7441;BME280;29616;51.950;8.572;2023-03-18T07:47:19;99494.63;;;13.23;100.00
7441;BME280;29616;51.950;8.572;2023-03-18T07:49:50;99523.00;;;13.39;100.00
7441;BME280;29616;51.950;8.572;2023-03-18T07:52:21;99525.19;;;13.20;100.00
7441;BME280;29616;51.950;8.572;2023-03-18T07:54:51;99528.28;;;13.40;100.00
7441;BME280;29616;51.950;8.572;2023-03-18T07:57:19;99494.22;;;13.34;100.00
7441;BME280;29616;51.950;8.572;2023-03-18T07:59:48;99525.22;;;13.58;100.00
7441;BME280;29616;51.950;8.572;2023-03-18T08:02:19;99538.03;;;13.43;100.00
7441;BME280;29616;51.950;8.572;2023-03-18T08:04:48;99532.25;;;13.75;100.00
7441;BME280;29616;51.950;8.572;2023-03-18T08:07:18;99511.31;;;13.74;100.00
7441;BME280;29616;51.950;8.572;2023-03-18T08:09:50;99539.97;;;14.23;100.00
7441;BME280;29616;51.950;8.572;2023-03-18T08:12:20;99539.91;;;14.31;100.00
7441;BME280;29616;51.950;8.572;2023-03-18T08:14:48;99548.22;;;14.09;100.00
7441;BME280;29616;51.950;8.572;2023-03-18T08:17:17;99548.28;;;14.01;100.00
7441;BME280;29616;51.950;8.572;2023-03-18T08:19:48;99538.16;;;13.86;100.00
7441;BME280;29616;51.950;8.572;2023-03-18T08:22:18;99553.59;;;13.87;100.00
7441;BME280;29616;51.950;8.572;2023-03-18T08:24:47;99549.25;;;13.93;100.00
7441;BME280;29616;51.950;8.572;2023-03-18T08:27:17;99529.00;;;13.57;100.00
7441;BME280;29616;51.950;8.572;2023-03-18T08:29:48;99527.59;;;13.61;100.00
7441;BME280;29616;51.950;8.572;2023-03-18T08:32:18;99549.31;;;13.85;100.00
7441;BME280;29616;51.950;8.572;2023-03-18T08:34:47;99546.41;;;14.01;100.00
7441;BME280;29616;51.950;8.572;2023-03-18T08:37:16;99559.13;;;14.02;100.00
7441;BME280;29616;51.950;8.572;2023-03-18T08:39:45;99559.44;;;13.84;100.00
7441;BME280;29616;51.950;8.572;2023-03-18T08:42:13;99549.47;;;13.69;100.00
7441;BME280;29616;51.950;8.572;2023-03-18T08:44:44;99558.88;;;13.74;100.00
7441;BME280;29616;51.950;8.572;2023-03-18T08:47:12;99564.47;;;13.81;100.00
7441;BME280;29616;51.950;8.572;2023-03-18T08:49:43;99567.81;;;13.91;100.00
7441;BME280;29616;51.950;8.572;2023-03-18T08:52:12;99557.09;;;13.96;100.00
7441;BME280;29616;51.950;8.572;2023-03-18T08:54:42;99551.69;;;13.88;100.00
7441;BME280;29616;51.950;8.572;2023-03-18T08:57:13;99577.50;;;14.16;100.00
7441;BME280;29616;51.950;8.572;2023-03-18T08:59:45;99570.50;;;14.28;100.00
7441;BME280;29616;51.950;8.572;2023-03-18T09:02:14;99569.88;;;14.55;100.00
7441;BME280;29616;51.950;8.572;2023-03-18T09:04:45;99569.88;;;14.55;100.00
7441;BME280;29616;51.950;8.572;2023-03-18T09:07:15;99564.91;;;14.66;100.00
7441;BME280;29616;51.950;8.572;2023-03-18T09:09:45;99564.44;;;14.77;100.00
7441;BME280;29616;51.950;8.572;2023-03-18T09:12:13;99584.44;;;14.56;100.00
7441;BME280;29616;51.950;8.572;2023-03-18T09:14:42;99591.16;;;14.83;100.00
7441;BME280;29616;51.950;8.572;2023-03-18T09:17:13;99567.66;;;14.66;100.00
7441;BME280;29616;51.950;8.572;2023-03-18T09:19:42;99574.03;;;14.66;100.00
7441;BME280;29616;51.950;8.572;2023-03-18T09:22:13;99589.00;;;14.64;100.00
7441;BME280;29616;51.950;8.572;2023-03-18T09:24:41;99568.16;;;14.54;100.00
7441;BME280;29616;51.950;8.572;2023-03-18T09:27:12;99590.72;;;14.35;100.00
7441;BME280;29616;51.950;8.572;2023-03-18T09:29:40;99595.09;;;14.44;100.00
7441;BME280;29616;51.950;8.572;2023-03-18T09:32:10;99597.06;;;14.50;100.00
7441;BME280;29616;51.950;8.572;2023-03-18T09:34:41;99597.75;;;14.52;100.00
7441;BME280;29616;51.950;8.572;2023-03-18T09:37:12;99595.94;;;14.45;100.00
7441;BME280;29616;51.950;8.572;2023-03-18T09:39:42;99589.72;;;14.87;100.00
7441;BME280;29616;51.950;8.572;2023-03-18T09:42:22;99573.81;;;14.82;100.00
7441;BME280;29616;51.950;8.572;2023-03-18T09:44:56;99580.00;;;15.05;100.00
7441;BME280;29616;51.950;8.572;2023-03-18T09:47:44;99603.88;;;14.84;100.00
7441;BME280;29616;51.950;8.572;2023-03-18T09:50:24;99611.22;;;15.34;100.00
7441;BME280;29616;51.950;8.572;2023-03-18T09:53:03;99599.81;;;15.51;100.00
7441;BME280;29616;51.950;8.572;2023-03-18T09:55:35;99612.72;;;15.72;100.00
7441;BME280;29616;51.950;8.572;2023-03-18T09:58:07;99610.81;;;16.21;100.00
7441;BME280;29616;51.950;8.572;2023-03-18T10:00:43;99601.63;;;16.42;100.00
7441;BME280;29616;51.950;8.572;2023-03-18T10:03:14;99608.06;;;16.21;100.00
7441;BME280;29616;51.950;8.572;2023-03-18T10:05:51;99602.09;;;15.69;100.00
7441;BME280;29616;51.950;8.572;2023-03-18T10:08:23;99614.88;;;15.76;100.00
7441;BME280;29616;51.950;8.572;2023-03-18T10:11:04;99624.19;;;15.54;100.00
7441;BME280;29616;51.950;8.572;2023-03-18T10:13:36;99618.81;;;15.67;100.00
7441;BME280;29616;51.950;8.572;2023-03-18T10:16:10;99617.25;;;15.80;100.00
7441;BME280;29616;51.950;8.572;2023-03-18T10:18:42;99623.41;;;16.58;100.00
7441;BME280;29616;51.950;8.572;2023-03-18T10:21:18;99617.22;;;16.90;100.00
7441;BME280;29616;51.950;8.572;2023-03-18T10:23:54;99620.03;;;16.63;100.00
7441;BME280;29616;51.950;8.572;2023-03-18T10:26:29;99620.00;;;16.28;100.00
7441;BME280;29616;51.950;8.572;2023-03-18T10:29:17;99633.47;;;16.72;100.00
7441;BME280;29616;51.950;8.572;2023-03-18T10:31:55;99631.91;;;16.63;100.00
7441;BME280;29616;51.950;8.572;2023-03-18T10:34:30;99624.88;;;16.54;100.00
7441;BME280;29616;51.950;8.572;2023-03-18T10:37:11;99635.25;;;16.86;100.00
7441;BME280;29616;51.950;8.572;2023-03-18T10:39:45;99633.28;;;17.21;100.00
7441;BME280;29616;51.950;8.572;2023-03-18T10:42:19;99615.81;;;17.68;100.00
7441;BME280;29616;51.950;8.572;2023-03-18T10:44:48;99627.09;;;17.86;100.00
7441;BME280;29616;51.950;8.572;2023-03-18T10:47:20;99636.56;;;17.51;100.00
7441;BME280;29616;51.950;8.572;2023-03-18T10:49:53;99627.97;;;18.33;100.00
7441;BME280;29616;51.950;8.572;2023-03-18T10:52:33;99628.19;;;18.11;100.00
7441;BME280;29616;51.950;8.572;2023-03-18T10:55:10;99628.78;;;17.74;100.00
7441;BME280;29616;51.950;8.572;2023-03-18T10:57:41;99640.31;;;17.24;100.00
7441;BME280;29616;51.950;8.572;2023-03-18T11:00:15;99642.22;;;17.30;100.00
7441;BME280;29616;51.950;8.572;2023-03-18T11:02:50;99646.50;;;17.39;100.00
7441;BME280;29616;51.950;8.572;2023-03-18T11:05:22;99644.00;;;17.50;100.00
7441;BME280;29616;51.950;8.572;2023-03-18T11:07:57;99624.66;;;17.50;100.00
7441;BME280;29616;51.950;8.572;2023-03-18T11:10:27;99629.75;;;17.40;100.00
7441;BME280;29616;51.950;8.572;2023-03-18T11:12:58;99624.75;;;17.96;100.00
7441;BME280;29616;51.950;8.572;2023-03-18T11:15:33;99630.25;;;17.70;100.00
7441;BME280;29616;51.950;8.572;2023-03-18T11:18:04;99623.03;;;17.56;100.00
7441;BME280;29616;51.950;8.572;2023-03-18T11:20:37;99634.94;;;18.42;100.00
7441;BME280;29616;51.950;8.572;2023-03-18T11:23:15;99629.94;;;19.16;100.00
7441;BME280;29616;51.950;8.572;2023-03-18T11:25:47;99632.13;;;18.94;100.00
7441;BME280;29616;51.950;8.572;2023-03-18T11:28:21;99637.31;;;19.73;100.00
7441;BME280;29616;51.950;8.572;2023-03-18T11:30:56;99644.09;;;19.32;100.00
7441;BME280;29616;51.950;8.572;2023-03-18T11:33:29;99601.97;;;18.73;100.00
7441;BME280;29616;51.950;8.572;2023-03-18T11:36:01;99635.50;;;19.54;100.00
7441;BME280;29616;51.950;8.572;2023-03-18T11:38:35;99642.50;;;19.63;100.00
7441;BME280;29616;51.950;8.572;2023-03-18T11:41:06;99617.59;;;20.86;100.00
7441;BME280;29616;51.950;8.572;2023-03-18T11:43:36;99614.75;;;20.25;100.00
7441;BME280;29616;51.950;8.572;2023-03-18T11:46:05;99626.47;;;21.31;100.00
7441;BME280;29616;51.950;8.572;2023-03-18T11:48:35;99604.22;;;20.34;100.00
7441;BME280;29616;51.950;8.572;2023-03-18T11:51:38;99609.44;;;20.17;100.00
7441;BME280;29616;51.950;8.572;2023-03-18T11:54:18;99615.34;;;21.31;100.00
7441;BME280;29616;51.950;8.572;2023-03-18T11:56:54;99629.56;;;21.83;100.00
7441;BME280;29616;51.950;8.572;2023-03-18T11:59:29;99626.63;;;21.18;100.00
7441;BME280;29616;51.950;8.572;2023-03-18T12:02:23;99617.91;;;21.62;100.00
7441;BME280;29616;51.950;8.572;2023-03-18T12:04:59;99612.09;;;19.81;100.00
7441;BME280;29616;51.950;8.572;2023-03-18T12:07:40;99631.66;;;19.55;100.00
7441;BME280;29616;51.950;8.572;2023-03-18T12:10:18;99616.41;;;19.39;100.00
7441;BME280;29616;51.950;8.572;2023-03-18T12:12:57;99625.06;;;19.87;100.00
7441;BME280;29616;51.950;8.572;2023-03-18T12:15:34;99622.75;;;20.83;100.00
7441;BME280;29616;51.950;8.572;2023-03-18T12:18:15;99600.22;;;21.09;100.00
7441;BME280;29616;51.950;8.572;2023-03-18T12:20:48;99602.91;;;21.34;100.00
7441;BME280;29616;51.950;8.572;2023-03-18T12:23:32;99596.53;;;20.97;100.00
7441;BME280;29616;51.950;8.572;2023-03-18T12:26:07;99619.06;;;20.89;100.00
7441;BME280;29616;51.950;8.572;2023-03-18T12:28:47;99612.09;;;20.80;100.00
7441;BME280;29616;51.950;8.572;2023-03-18T12:31:35;99624.53;;;19.72;100.00
7441;BME280;29616;51.950;8.572;2023-03-18T12:34:13;99591.28;;;20.28;100.00
7441;BME280;29616;51.950;8.572;2023-03-18T12:36:55;99615.56;;;19.70;100.00
7441;BME280;29616;51.950;8.572;2023-03-18T12:39:48;99615.59;;;20.01;100.00
7441;BME280;29616;51.950;8.572;2023-03-18T12:42:25;99610.50;;;20.47;100.00
7441;BME280;29616;51.950;8.572;2023-03-18T12:44:57;99589.09;;;20.73;100.00
7441;BME280;29616;51.950;8.572;2023-03-18T12:47:31;99611.78;;;20.70;100.00
7441;BME280;29616;51.950;8.572;2023-03-18T12:50:05;99601.84;;;20.37;100.00
7441;BME280;29616;51.950;8.572;2023-03-18T12:52:43;99606.31;;;20.14;100.00
7441;BME280;29616;51.950;8.572;2023-03-18T12:55:15;99607.44;;;19.44;100.00
7441;BME280;29616;51.950;8.572;2023-03-18T12:57:49;99604.09;;;21.08;100.00
7441;BME280;29616;51.950;8.572;2023-03-18T13:00:23;99589.56;;;22.37;100.00
7441;BME280;29616;51.950;8.572;2023-03-18T13:03:00;99595.38;;;22.35;100.00
7441;BME280;29616;51.950;8.572;2023-03-18T13:05:39;99595.47;;;20.73;100.00
7441;BME280;29616;51.950;8.572;2023-03-18T13:08:23;99591.03;;;21.08;100.00
7441;BME280;29616;51.950;8.572;2023-03-18T13:10:58;99600.06;;;21.22;100.00
7441;BME280;29616;51.950;8.572;2023-03-18T13:13:35;99599.34;;;21.27;100.00
7441;BME280;29616;51.950;8.572;2023-03-18T13:16:07;99596.72;;;21.50;100.00
7441;BME280;29616;51.950;8.572;2023-03-18T13:18:38;99601.22;;;21.33;100.00
7441;BME280;29616;51.950;8.572;2023-03-18T13:21:12;99595.47;;;20.73;100.00
7441;BME280;29616;51.950;8.572;2023-03-18T13:24:00;99607.13;;;21.00;100.00
7441;BME280;29616;51.950;8.572;2023-03-18T13:26:46;99602.84;;;21.22;100.00
7441;BME280;29616;51.950;8.572;2023-03-18T13:29:21;99604.16;;;20.65;100.00
7441;BME280;29616;51.950;8.572;2023-03-18T13:31:53;99601.13;;;21.03;100.00